sensor_id;sensor_type;location;lat;lon;timestamp;pressure;altitude;pressure_sealevel;temperature;humidity
56006;BME280;41888;44.696;10.522;2023-02-12T00:00:40;102184.03;;;1.97;67.76
56006;BME280;41888;44.696;10.522;2023-02-12T00:03:07;102188.84;;;1.91;68.19
56006;BME280;41888;44.696;10.522;2023-02-12T00:05:36;102188.44;;;1.97;67.03
56006;BME280;41888;44.696;10.522;2023-02-12T00:08:02;102186.97;;;1.80;67.73
56006;BME280;41888;44.696;10.522;2023-02-12T00:10:28;102186.66;;;1.85;67.98
56006;BME280;41888;44.696;10.522;2023-02-12T00:12:54;102188.78;;;1.80;67.81
56006;BME280;41888;44.696;10.522;2023-02-12T00:15:21;102175.09;;;1.87;67.66
56006;BME280;41888;44.696;10.522;2023-02-12T00:17:47;102183.31;;;1.95;66.66
56006;BME280;41888;44.696;10.522;2023-02-12T00:20:13;102184.34;;;2.05;66.76
56006;BME280;41888;44.696;10.522;2023-02-12T00:22:39;102178.66;;;1.99;66.96
56006;BME280;41888;44.696;10.522;2023-02-12T00:25:06;102177.44;;;1.79;67.90
56006;BME280;41888;44.696;10.522;2023-02-12T00:27:33;102176.78;;;1.76;68.30
56006;BME280;41888;44.696;10.522;2023-02-12T00:30:00;102177.00;;;1.73;67.91
56006;BME280;41888;44.696;10.522;2023-02-12T00:32:26;102182.03;;;1.63;68.95
56006;BME280;41888;44.696;10.522;2023-02-12T00:34:52;102178.25;;;1.54;69.66
56006;BME280;41888;44.696;10.522;2023-02-12T00:37:19;102184.34;;;1.80;67.72
56006;BME280;41888;44.696;10.522;2023-02-12T00:39:45;102180.16;;;1.78;67.58
56006;BME280;41888;44.696;10.522;2023-02-12T00:42:11;102181.19;;;2.00;65.80
56006;BME280;41888;44.696;10.522;2023-02-12T00:44:37;102176.56;;;2.04;66.19
56006;BME280;41888;44.696;10.522;2023-02-12T00:47:04;102179.94;;;1.93;65.59
56006;BME280;41888;44.696;10.522;2023-02-12T00:49:31;102172.34;;;2.01;64.70
56006;BME280;41888;44.696;10.522;2023-02-12T00:52:01;102175.63;;;1.92;64.73
56006;BME280;41888;44.696;10.522;2023-02-12T00:54:28;102175.81;;;2.02;64.30
56006;BME280;41888;44.696;10.522;2023-02-12T00:56:55;102184.97;;;1.96;63.87
56006;BME280;41888;44.696;10.522;2023-02-12T00:59:23;102181.72;;;2.05;63.91
56006;BME280;41888;44.696;10.522;2023-02-12T01:01:51;102193.16;;;1.92;64.52
56006;BME280;41888;44.696;10.522;2023-02-12T01:04:18;102183.91;;;1.86;64.35
56006;BME280;41888;44.696;10.522;2023-02-12T01:06:45;102182.13;;;1.99;64.02
56006;BME280;41888;44.696;10.522;2023-02-12T01:09:11;102184.75;;;1.87;64.42
56006;BME280;41888;44.696;10.522;2023-02-12T01:11:38;102185.41;;;1.78;64.87
56006;BME280;41888;44.696;10.522;2023-02-12T01:14:04;102191.06;;;1.84;64.47
56006;BME280;41888;44.696;10.522;2023-02-12T01:16:31;102186.88;;;1.94;64.04
56006;BME280;41888;44.696;10.522;2023-02-12T01:18:58;102189.50;;;1.69;64.83
56006;BME280;41888;44.696;10.522;2023-02-12T01:21:27;102196.00;;;1.63;65.17
56006;BME280;41888;44.696;10.522;2023-02-12T01:23:54;102180.78;;;1.56;66.09
56006;BME280;41888;44.696;10.522;2023-02-12T01:26:22;102190.13;;;1.47;66.94
56006;BME280;41888;44.696;10.522;2023-02-12T01:28:51;102196.50;;;1.56;66.20
56006;BME280;41888;44.696;10.522;2023-02-12T01:31:21;102205.66;;;1.63;65.19
56006;BME280;41888;44.696;10.522;2023-02-12T01:33:49;102198.63;;;1.76;65.19
56006;BME280;41888;44.696;10.522;2023-02-12T01:36:16;102196.09;;;1.75;63.48
56006;BME280;41888;44.696;10.522;2023-02-12T01:38:43;102191.59;;;1.77;63.53
56006;BME280;41888;44.696;10.522;2023-02-12T01:41:12;102182.16;;;1.61;65.14
56006;BME280;41888;44.696;10.522;2023-02-12T01:43:40;102180.16;;;1.52;65.89
56006;BME280;41888;44.696;10.522;2023-02-12T01:46:07;102178.78;;;1.47;66.60
56006;BME280;41888;44.696;10.522;2023-02-12T01:48:43;102185.06;;;1.69;64.55
56006;BME280;41888;44.696;10.522;2023-02-12T01:51:13;102186.13;;;1.67;64.69
56006;BME280;41888;44.696;10.522;2023-02-12T01:53:48;102170.06;;;1.59;65.15
56006;BME280;41888;44.696;10.522;2023-02-12T01:56:16;102160.09;;;1.64;64.19
56006;BME280;41888;44.696;10.522;2023-02-12T01:58:43;102165.25;;;1.53;65.29
56006;BME280;41888;44.696;10.522;2023-02-12T02:01:15;102167.94;;;1.26;66.54
56006;BME280;41888;44.696;10.522;2023-02-12T02:03:45;102158.84;;;1.32;66.11
56006;BME280;41888;44.696;10.522;2023-02-12T02:06:15;102155.69;;;1.52;64.61
56006;BME280;41888;44.696;10.522;2023-02-12T02:08:42;102155.88;;;1.49;63.97
56006;BME280;41888;44.696;10.522;2023-02-12T02:11:09;102157.56;;;1.50;64.11
56006;BME280;41888;44.696;10.522;2023-02-12T02:13:54;102155.91;;;1.61;64.20
56006;BME280;41888;44.696;10.522;2023-02-12T02:16:42;102163.56;;;1.52;65.28
56006;BME280;41888;44.696;10.522;2023-02-12T02:19:34;102159.16;;;1.65;64.68
56006;BME280;41888;44.696;10.522;2023-02-12T02:22:16;102151.19;;;1.66;65.05
56006;BME280;41888;44.696;10.522;2023-02-12T02:33:31;102148.63;;;1.14;67.05
56006;BME280;41888;44.696;10.522;2023-02-12T02:39:25;102139.94;;;1.26;64.69
56006;BME280;41888;44.696;10.522;2023-02-12T02:44:54;102139.84;;;1.41;64.34
56006;BME280;41888;44.696;10.522;2023-02-12T02:47:33;102133.66;;;1.42;64.14
56006;BME280;41888;44.696;10.522;2023-02-12T02:50:08;102132.53;;;1.58;62.62
56006;BME280;41888;44.696;10.522;2023-02-12T02:52:45;102124.94;;;1.54;62.06
56006;BME280;41888;44.696;10.522;2023-02-12T02:55:16;102127.75;;;1.38;62.69
56006;BME280;41888;44.696;10.522;2023-02-12T02:58:03;102119.50;;;1.32;63.53
56006;BME280;41888;44.696;10.522;2023-02-12T03:00:37;102118.78;;;1.42;64.16
56006;BME280;41888;44.696;10.522;2023-02-12T03:03:22;102121.91;;;1.47;63.11
56006;BME280;41888;44.696;10.522;2023-02-12T03:05:53;102116.53;;;1.49;63.27
56006;BME280;41888;44.696;10.522;2023-02-12T03:08:31;102113.91;;;1.49;63.29
56006;BME280;41888;44.696;10.522;2023-02-12T03:11:15;102118.03;;;1.53;62.87
56006;BME280;41888;44.696;10.522;2023-02-12T03:16:33;102131.69;;;1.58;62.35
56006;BME280;41888;44.696;10.522;2023-02-12T03:19:13;102135.66;;;1.63;62.18
56006;BME280;41888;44.696;10.522;2023-02-12T03:21:59;102117.53;;;1.48;63.22
56006;BME280;41888;44.696;10.522;2023-02-12T03:24:40;102115.59;;;1.24;64.01
56006;BME280;41888;44.696;10.522;2023-02-12T03:27:19;102107.09;;;1.34;64.12
56006;BME280;41888;44.696;10.522;2023-02-12T03:29:46;102112.78;;;1.40;63.26
56006;BME280;41888;44.696;10.522;2023-02-12T03:37:33;102104.06;;;1.40;62.59
56006;BME280;41888;44.696;10.522;2023-02-12T03:40:05;102104.38;;;1.35;63.38
56006;BME280;41888;44.696;10.522;2023-02-12T03:47:48;102101.44;;;1.65;62.25
56006;BME280;41888;44.696;10.522;2023-02-12T03:50:20;102105.75;;;1.66;61.69
56006;BME280;41888;44.696;10.522;2023-02-12T03:52:50;102099.78;;;1.51;62.34
56006;BME280;41888;44.696;10.522;2023-02-12T03:55:16;102095.78;;;1.33;62.65
56006;BME280;41888;44.696;10.522;2023-02-12T03:57:49;102106.91;;;1.49;62.58
56006;BME280;41888;44.696;10.522;2023-02-12T04:00:21;102120.22;;;1.46;62.33
56006;BME280;41888;44.696;10.522;2023-02-12T04:02:48;102110.56;;;1.59;61.05
56006;BME280;41888;44.696;10.522;2023-02-12T04:05:20;102111.63;;;1.57;61.63
56006;BME280;41888;44.696;10.522;2023-02-12T04:07:47;102105.31;;;1.72;61.10
56006;BME280;41888;44.696;10.522;2023-02-12T04:10:14;102100.69;;;1.38;63.38
56006;BME280;41888;44.696;10.522;2023-02-12T04:18:42;102098.19;;;1.49;61.60
56006;BME280;41888;44.696;10.522;2023-02-12T04:24:24;102092.97;;;1.36;62.45
56006;BME280;41888;44.696;10.522;2023-02-12T04:27:04;102086.34;;;1.31;63.10
56006;BME280;41888;44.696;10.522;2023-02-12T04:29:54;102083.41;;;1.48;62.34
56006;BME280;41888;44.696;10.522;2023-02-12T04:32:45;102088.44;;;1.51;61.93
56006;BME280;41888;44.696;10.522;2023-02-12T04:35:35;102097.66;;;1.44;62.06
56006;BME280;41888;44.696;10.522;2023-02-12T04:40:39;102102.06;;;1.56;61.05
56006;BME280;41888;44.696;10.522;2023-02-12T04:43:07;102091.81;;;1.40;61.94
56006;BME280;41888;44.696;10.522;2023-02-12T04:45:34;102093.56;;;1.40;62.13
56006;BME280;41888;44.696;10.522;2023-02-12T04:48:01;102092.75;;;1.26;62.80
56006;BME280;41888;44.696;10.522;2023-02-12T04:50:38;102092.31;;;1.33;62.78
56006;BME280;41888;44.696;10.522;2023-02-12T04:53:05;102087.59;;;1.38;62.37
56006;BME280;41888;44.696;10.522;2023-02-12T04:55:32;102087.09;;;1.20;63.52
56006;BME280;41888;44.696;10.522;2023-02-12T04:57:58;102094.53;;;1.26;63.06
56006;BME280;41888;44.696;10.522;2023-02-12T05:00:24;102093.56;;;1.27;63.60
56006;BME280;41888;44.696;10.522;2023-02-12T05:02:50;102090.41;;;1.22;64.22
56006;BME280;41888;44.696;10.522;2023-02-12T05:05:16;102095.78;;;1.20;64.86
56006;BME280;41888;44.696;10.522;2023-02-12T05:07:43;102104.47;;;1.08;65.39
56006;BME280;41888;44.696;10.522;2023-02-12T05:10:09;102098.47;;;1.06;66.11
56006;BME280;41888;44.696;10.522;2023-02-12T05:12:35;102098.06;;;1.12;65.64
56006;BME280;41888;44.696;10.522;2023-02-12T05:15:02;102094.06;;;1.07;65.75
56006;BME280;41888;44.696;10.522;2023-02-12T05:17:28;102095.13;;;1.04;65.98
56006;BME280;41888;44.696;10.522;2023-02-12T05:19:54;102095.53;;;0.98;66.76
56006;BME280;41888;44.696;10.522;2023-02-12T05:22:20;102104.38;;;1.10;65.32
56006;BME280;41888;44.696;10.522;2023-02-12T05:24:46;102094.50;;;1.13;64.70
56006;BME280;41888;44.696;10.522;2023-02-12T05:27:13;102089.69;;;1.20;64.33
56006;BME280;41888;44.696;10.522;2023-02-12T05:29:39;102093.56;;;1.27;64.82
56006;BME280;41888;44.696;10.522;2023-02-12T05:32:05;102097.25;;;1.24;64.29
56006;BME280;41888;44.696;10.522;2023-02-12T05:34:32;102101.22;;;1.17;64.59
56006;BME280;41888;44.696;10.522;2023-02-12T05:36:59;102101.22;;;1.17;64.37
56006;BME280;41888;44.696;10.522;2023-02-12T05:39:25;102106.47;;;1.17;64.78
56006;BME280;41888;44.696;10.522;2023-02-12T05:41:51;102097.03;;;1.15;65.07
56006;BME280;41888;44.696;10.522;2023-02-12T05:44:17;102090.75;;;1.05;65.84
56006;BME280;41888;44.696;10.522;2023-02-12T05:46:44;102087.34;;;0.90;66.61
56006;BME280;41888;44.696;10.522;2023-02-12T05:49:10;102084.63;;;0.79;67.18
56006;BME280;41888;44.696;10.522;2023-02-12T05:51:37;102081.00;;;0.67;68.21
56006;BME280;41888;44.696;10.522;2023-02-12T05:54:05;102089.09;;;0.77;67.71
56006;BME280;41888;44.696;10.522;2023-02-12T05:56:33;102087.34;;;0.90;67.62
56006;BME280;41888;44.696;10.522;2023-02-12T05:59:06;102088.59;;;0.84;67.58
56006;BME280;41888;44.696;10.522;2023-02-12T06:01:39;102091.81;;;0.75;68.07
56006;BME280;41888;44.696;10.522;2023-02-12T06:04:09;102092.47;;;0.79;67.76
56006;BME280;41888;44.696;10.522;2023-02-12T06:06:38;102090.66;;;0.79;67.90
56006;BME280;41888;44.696;10.522;2023-02-12T06:09:07;102092.56;;;0.90;66.68
56006;BME280;41888;44.696;10.522;2023-02-12T06:11:34;102096.16;;;1.02;66.24
56006;BME280;41888;44.696;10.522;2023-02-12T06:14:08;102082.22;;;1.01;66.08
56006;BME280;41888;44.696;10.522;2023-02-12T06:16:35;102081.91;;;0.93;66.42
56006;BME280;41888;44.696;10.522;2023-02-12T06:19:04;102072.44;;;0.91;67.59
56006;BME280;41888;44.696;10.522;2023-02-12T06:21:31;102075.72;;;0.94;67.15
56006;BME280;41888;44.696;10.522;2023-02-12T06:23:57;102088.72;;;0.96;66.29
56006;BME280;41888;44.696;10.522;2023-02-12T06:26:24;102096.16;;;1.02;65.48
56006;BME280;41888;44.696;10.522;2023-02-12T06:28:52;102095.97;;;1.17;63.93
56006;BME280;41888;44.696;10.522;2023-02-12T06:33:45;102102.59;;;1.23;63.26
56006;BME280;41888;44.696;10.522;2023-02-12T06:36:11;102109.63;;;1.35;63.07
56006;BME280;41888;44.696;10.522;2023-02-12T06:38:38;102108.38;;;1.66;61.81
56006;BME280;41888;44.696;10.522;2023-02-12T06:41:04;102104.84;;;2.03;59.88
56006;BME280;41888;44.696;10.522;2023-02-12T06:43:30;102107.28;;;2.30;59.89
56006;BME280;41888;44.696;10.522;2023-02-12T06:46:00;102107.75;;;2.11;60.39
56006;BME280;41888;44.696;10.522;2023-02-12T06:48:27;102113.22;;;2.21;59.91
56006;BME280;41888;44.696;10.522;2023-02-12T06:50:53;102120.16;;;2.09;60.31
56006;BME280;41888;44.696;10.522;2023-02-12T06:53:19;102128.03;;;2.46;60.17
56006;BME280;41888;44.696;10.522;2023-02-12T06:55:45;102131.53;;;2.81;60.98
56006;BME280;41888;44.696;10.522;2023-02-12T06:58:12;102137.66;;;3.17;60.51
56006;BME280;41888;44.696;10.522;2023-02-12T07:00:38;102141.00;;;2.84;61.64
56006;BME280;41888;44.696;10.522;2023-02-12T07:03:04;102134.81;;;2.61;63.18
56006;BME280;41888;44.696;10.522;2023-02-12T07:05:30;102132.56;;;2.68;63.58
56006;BME280;41888;44.696;10.522;2023-02-12T07:07:57;102136.59;;;2.84;62.89
56006;BME280;41888;44.696;10.522;2023-02-12T07:10:24;102153.09;;;2.63;63.94
56006;BME280;41888;44.696;10.522;2023-02-12T07:12:50;102146.97;;;2.38;64.94
56006;BME280;41888;44.696;10.522;2023-02-12T07:15:16;102153.88;;;2.52;64.79
56006;BME280;41888;44.696;10.522;2023-02-12T07:17:42;102149.72;;;2.61;63.82
56006;BME280;41888;44.696;10.522;2023-02-12T07:20:09;102156.38;;;2.77;63.58
56006;BME280;41888;44.696;10.522;2023-02-12T07:22:36;102156.19;;;2.91;63.77
56006;BME280;41888;44.696;10.522;2023-02-12T07:25:02;102159.19;;;3.22;62.67
56006;BME280;41888;44.696;10.522;2023-02-12T07:27:28;102171.66;;;3.31;62.45
56006;BME280;41888;44.696;10.522;2023-02-12T07:29:55;102173.78;;;3.26;62.31
56006;BME280;41888;44.696;10.522;2023-02-12T07:32:21;102170.22;;;3.27;62.70
56006;BME280;41888;44.696;10.522;2023-02-12T07:34:47;102165.69;;;3.40;62.10
56006;BME280;41888;44.696;10.522;2023-02-12T07:37:13;102166.56;;;3.52;61.37
56006;BME280;41888;44.696;10.522;2023-02-12T07:39:39;102166.50;;;3.29;62.28
56006;BME280;41888;44.696;10.522;2023-02-12T07:42:05;102170.91;;;3.29;63.06
56006;BME280;41888;44.696;10.522;2023-02-12T07:44:33;102173.59;;;3.40;63.10
56006;BME280;41888;44.696;10.522;2023-02-12T07:46:59;102175.31;;;3.52;63.08
56006;BME280;41888;44.696;10.522;2023-02-12T07:49:26;102169.94;;;3.87;61.53
56006;BME280;41888;44.696;10.522;2023-02-12T07:51:52;102175.47;;;3.84;61.25
56006;BME280;41888;44.696;10.522;2023-02-12T07:54:20;102181.19;;;3.78;60.28
56006;BME280;41888;44.696;10.522;2023-02-12T07:56:46;102176.91;;;3.99;59.69
56006;BME280;41888;44.696;10.522;2023-02-12T07:59:15;102188.75;;;4.05;60.11
56006;BME280;41888;44.696;10.522;2023-02-12T08:01:49;102194.88;;;4.05;59.97
56006;BME280;41888;44.696;10.522;2023-02-12T08:04:19;102201.19;;;4.03;59.95
56006;BME280;41888;44.696;10.522;2023-02-12T08:06:47;102194.25;;;4.13;59.75
56006;BME280;41888;44.696;10.522;2023-02-12T08:09:16;102190.56;;;4.04;59.41
56006;BME280;41888;44.696;10.522;2023-02-12T08:11:43;102191.50;;;4.14;59.36
56006;BME280;41888;44.696;10.522;2023-02-12T08:14:15;102191.41;;;4.16;58.37
56006;BME280;41888;44.696;10.522;2023-02-12T08:16:43;102190.19;;;4.42;57.42
56006;BME280;41888;44.696;10.522;2023-02-12T08:19:10;102195.88;;;4.81;56.50
56006;BME280;41888;44.696;10.522;2023-02-12T08:21:36;102202.22;;;5.10;54.54
56006;BME280;41888;44.696;10.522;2023-02-12T08:24:03;102205.25;;;5.05;54.98
56006;BME280;41888;44.696;10.522;2023-02-12T08:26:31;102205.78;;;5.20;55.24
56006;BME280;41888;44.696;10.522;2023-02-12T08:29:00;102207.13;;;5.35;53.70
56006;BME280;41888;44.696;10.522;2023-02-12T08:31:32;102218.31;;;5.60;54.33
56006;BME280;41888;44.696;10.522;2023-02-12T08:33:59;102213.66;;;5.73;53.00
56006;BME280;41888;44.696;10.522;2023-02-12T08:36:34;102224.19;;;6.14;52.37
56006;BME280;41888;44.696;10.522;2023-02-12T08:39:00;102228.59;;;6.84;50.55
56006;BME280;41888;44.696;10.522;2023-02-12T08:41:28;102234.91;;;7.21;49.92
56006;BME280;41888;44.696;10.522;2023-02-12T08:44:01;102243.09;;;7.86;48.03
56006;BME280;41888;44.696;10.522;2023-02-12T08:46:33;102251.56;;;8.09;47.12
56006;BME280;41888;44.696;10.522;2023-02-12T08:49:05;102259.25;;;8.48;46.42
56006;BME280;41888;44.696;10.522;2023-02-12T08:51:33;102250.50;;;8.93;46.10
56006;BME280;41888;44.696;10.522;2023-02-12T08:54:03;102273.34;;;10.26;43.20
56006;BME280;41888;44.696;10.522;2023-02-12T08:56:31;102269.31;;;12.44;39.39
56006;BME280;41888;44.696;10.522;2023-02-12T08:58:58;102276.50;;;15.13;34.82
56006;BME280;41888;44.696;10.522;2023-02-12T09:01:26;102281.84;;;16.61;31.76
56006;BME280;41888;44.696;10.522;2023-02-12T09:03:53;102286.53;;;17.73;30.13
56006;BME280;41888;44.696;10.522;2023-02-12T09:06:21;102295.19;;;18.15;29.33
56006;BME280;41888;44.696;10.522;2023-02-12T09:08:48;102302.41;;;18.41;29.17
56006;BME280;41888;44.696;10.522;2023-02-12T09:11:23;102310.97;;;18.18;29.03
56006;BME280;41888;44.696;10.522;2023-02-12T09:14:05;102310.28;;;18.49;28.63
56006;BME280;41888;44.696;10.522;2023-02-12T09:16:33;102314.19;;;18.66;28.21
56006;BME280;41888;44.696;10.522;2023-02-12T09:19:00;102314.06;;;16.95;30.02
56006;BME280;41888;44.696;10.522;2023-02-12T09:21:27;102307.78;;;17.42;30.30
56006;BME280;41888;44.696;10.522;2023-02-12T09:23:53;102321.66;;;18.64;29.44
56006;BME280;41888;44.696;10.522;2023-02-12T09:26:21;102313.44;;;17.73;29.50
56006;BME280;41888;44.696;10.522;2023-02-12T09:28:49;102318.94;;;19.15;28.13
56006;BME280;41888;44.696;10.522;2023-02-12T09:31:19;102319.03;;;20.21;26.92
56006;BME280;41888;44.696;10.522;2023-02-12T09:33:47;102323.47;;;20.77;25.63
56006;BME280;41888;44.696;10.522;2023-02-12T09:36:15;102322.09;;;20.86;25.76
56006;BME280;41888;44.696;10.522;2023-02-12T09:38:42;102318.94;;;21.37;24.61
56006;BME280;41888;44.696;10.522;2023-02-12T09:44:08;102312.28;;;21.63;24.24
56006;BME280;41888;44.696;10.522;2023-02-12T09:49:31;102320.50;;;21.44;23.35
56006;BME280;41888;44.696;10.522;2023-02-12T09:52:04;102313.66;;;21.95;23.87
56006;BME280;41888;44.696;10.522;2023-02-12T09:54:38;102318.09;;;22.94;22.81
56006;BME280;41888;44.696;10.522;2023-02-12T09:57:14;102318.63;;;23.53;22.83
56006;BME280;41888;44.696;10.522;2023-02-12T09:59:50;102318.13;;;22.71;22.97
56006;BME280;41888;44.696;10.522;2023-02-12T10:02:19;102327.25;;;22.42;23.26
56006;BME280;41888;44.696;10.522;2023-02-12T10:04:49;102318.09;;;22.83;22.94
56006;BME280;41888;44.696;10.522;2023-02-12T10:10:32;102318.53;;;21.63;24.62
56006;BME280;41888;44.696;10.522;2023-02-12T10:13:30;102308.75;;;22.04;24.31
56006;BME280;41888;44.696;10.522;2023-02-12T10:24:55;102308.09;;;22.60;23.77
56006;BME280;41888;44.696;10.522;2023-02-12T10:27:37;102311.09;;;22.98;23.68
56006;BME280;41888;44.696;10.522;2023-02-12T10:32:43;102298.66;;;21.81;24.11
56006;BME280;41888;44.696;10.522;2023-02-12T10:35:16;102308.38;;;22.35;24.12
56006;BME280;41888;44.696;10.522;2023-02-12T10:37:51;102307.06;;;23.58;22.59
56006;BME280;41888;44.696;10.522;2023-02-12T10:40:24;102294.28;;;23.75;22.22
56006;BME280;41888;44.696;10.522;2023-02-12T10:42:53;102290.59;;;22.79;21.74
56006;BME280;41888;44.696;10.522;2023-02-12T10:45:33;102289.03;;;23.68;21.21
56006;BME280;41888;44.696;10.522;2023-02-12T10:48:17;102289.16;;;24.12;22.20
56006;BME280;41888;44.696;10.522;2023-02-12T10:51:10;102290.59;;;23.47;22.07
56006;BME280;41888;44.696;10.522;2023-02-12T10:53:43;102292.47;;;23.80;21.45
56006;BME280;41888;44.696;10.522;2023-02-12T10:56:22;102290.97;;;24.23;20.76
56006;BME280;41888;44.696;10.522;2023-02-12T11:01:33;102293.63;;;24.18;21.24
56006;BME280;41888;44.696;10.522;2023-02-12T11:04:22;102276.50;;;23.84;21.72
56006;BME280;41888;44.696;10.522;2023-02-12T11:07:02;102277.72;;;24.10;21.54
56006;BME280;41888;44.696;10.522;2023-02-12T11:09:33;102275.56;;;23.45;20.90
56006;BME280;41888;44.696;10.522;2023-02-12T11:12:01;102272.59;;;23.01;22.26
56006;BME280;41888;44.696;10.522;2023-02-12T11:14:29;102268.09;;;22.67;23.21
56006;BME280;41888;44.696;10.522;2023-02-12T11:16:57;102267.72;;;22.75;23.70
56006;BME280;41888;44.696;10.522;2023-02-12T11:19:28;102265.81;;;22.87;23.76
56006;BME280;41888;44.696;10.522;2023-02-12T11:22:11;102259.22;;;22.83;24.26
56006;BME280;41888;44.696;10.522;2023-02-12T11:24:43;102260.28;;;23.10;24.09
56006;BME280;41888;44.696;10.522;2023-02-12T11:27:23;102255.66;;;22.94;24.22
56006;BME280;41888;44.696;10.522;2023-02-12T11:32:35;102248.75;;;22.75;24.96
56006;BME280;41888;44.696;10.522;2023-02-12T11:37:42;102239.81;;;22.91;25.32
56006;BME280;41888;44.696;10.522;2023-02-12T11:42:56;102231.06;;;21.21;27.52
56006;BME280;41888;44.696;10.522;2023-02-12T11:45:30;102224.28;;;20.71;27.85
56006;BME280;41888;44.696;10.522;2023-02-12T11:47:58;102217.56;;;20.61;28.69
56006;BME280;41888;44.696;10.522;2023-02-12T11:50:27;102235.41;;;20.62;28.86
56006;BME280;41888;44.696;10.522;2023-02-12T11:53:01;102225.97;;;21.13;28.11
56006;BME280;41888;44.696;10.522;2023-02-12T11:55:35;102226.16;;;21.00;28.28
56006;BME280;41888;44.696;10.522;2023-02-12T12:01:02;102223.59;;;20.20;28.74
56006;BME280;41888;44.696;10.522;2023-02-12T12:03:46;102216.75;;;19.57;29.64
56006;BME280;41888;44.696;10.522;2023-02-12T12:06:34;102216.19;;;19.73;29.74
56006;BME280;41888;44.696;10.522;2023-02-12T12:20:46;102219.06;;;19.53;30.49
56006;BME280;41888;44.696;10.522;2023-02-12T12:23:29;102215.50;;;19.28;31.10
56006;BME280;41888;44.696;10.522;2023-02-12T12:26:25;102213.19;;;17.91;32.82
56006;BME280;41888;44.696;10.522;2023-02-12T12:29:28;102212.88;;;18.39;32.51
56006;BME280;41888;44.696;10.522;2023-02-12T12:32:01;102210.75;;;18.54;32.24
56006;BME280;41888;44.696;10.522;2023-02-12T12:34:28;102215.91;;;17.91;33.37
56006;BME280;41888;44.696;10.522;2023-02-12T12:54:06;102208.00;;;16.57;32.31
56006;BME280;41888;44.696;10.522;2023-02-12T13:05:20;102217.91;;;16.56;30.44
56006;BME280;41888;44.696;10.522;2023-02-12T13:26:49;102210.78;;;14.82;31.53
56006;BME280;41888;44.696;10.522;2023-02-12T13:29:25;102217.56;;;14.33;31.29
56006;BME280;41888;44.696;10.522;2023-02-12T13:32:22;102216.28;;;14.29;31.80
56006;BME280;41888;44.696;10.522;2023-02-12T13:34:49;102216.53;;;14.78;31.79
56006;BME280;41888;44.696;10.522;2023-02-12T13:37:41;102209.75;;;14.83;30.69
56006;BME280;41888;44.696;10.522;2023-02-12T13:40:31;102214.34;;;14.67;30.70
56006;BME280;41888;44.696;10.522;2023-02-12T13:48:29;102212.13;;;14.56;31.45
56006;BME280;41888;44.696;10.522;2023-02-12T13:51:02;102210.28;;;14.57;30.91
56006;BME280;41888;44.696;10.522;2023-02-12T13:53:46;102216.97;;;14.17;31.69
56006;BME280;41888;44.696;10.522;2023-02-12T13:58:59;102210.84;;;14.52;30.90
56006;BME280;41888;44.696;10.522;2023-02-12T14:01:44;102214.38;;;14.53;29.69
56006;BME280;41888;44.696;10.522;2023-02-12T14:09:20;102209.38;;;14.35;30.92
56006;BME280;41888;44.696;10.522;2023-02-12T14:11:53;102212.00;;;14.43;30.67
56006;BME280;41888;44.696;10.522;2023-02-12T14:14:37;102209.81;;;14.68;30.86
56006;BME280;41888;44.696;10.522;2023-02-12T14:20:39;102216.00;;;14.68;31.55
56006;BME280;41888;44.696;10.522;2023-02-12T14:23:34;102209.94;;;14.16;31.49
56006;BME280;41888;44.696;10.522;2023-02-12T14:26:04;102209.84;;;14.38;31.44
56006;BME280;41888;44.696;10.522;2023-02-12T14:33:50;102213.78;;;14.13;31.32
56006;BME280;41888;44.696;10.522;2023-02-12T14:41:48;102204.59;;;14.16;30.98
56006;BME280;41888;44.696;10.522;2023-02-12T14:54:50;102214.91;;;14.19;31.25
56006;BME280;41888;44.696;10.522;2023-02-12T15:00:00;102220.81;;;14.14;31.13
56006;BME280;41888;44.696;10.522;2023-02-12T15:02:35;102223.66;;;14.13;31.29
56006;BME280;41888;44.696;10.522;2023-02-12T15:05:21;102221.53;;;14.23;31.15
56006;BME280;41888;44.696;10.522;2023-02-12T15:07:55;102218.88;;;13.41;32.22
56006;BME280;41888;44.696;10.522;2023-02-12T15:10:34;102217.47;;;13.00;32.91
56006;BME280;41888;44.696;10.522;2023-02-12T15:13:40;102222.84;;;13.45;32.11
56006;BME280;41888;44.696;10.522;2023-02-12T15:21:44;102220.38;;;13.21;32.27
56006;BME280;41888;44.696;10.522;2023-02-12T15:24:21;102223.25;;;13.34;32.53
56006;BME280;41888;44.696;10.522;2023-02-12T15:26:49;102222.13;;;13.29;32.44
56006;BME280;41888;44.696;10.522;2023-02-12T15:29:28;102225.91;;;13.11;33.07
56006;BME280;41888;44.696;10.522;2023-02-12T15:32:01;102226.81;;;12.96;32.82
56006;BME280;41888;44.696;10.522;2023-02-12T15:34:32;102221.63;;;13.02;32.91
56006;BME280;41888;44.696;10.522;2023-02-12T15:37:00;102226.13;;;13.02;32.93
56006;BME280;41888;44.696;10.522;2023-02-12T15:39:31;102223.34;;;12.95;33.82
56006;BME280;41888;44.696;10.522;2023-02-12T15:42:00;102225.53;;;12.92;34.03
56006;BME280;41888;44.696;10.522;2023-02-12T15:44:32;102233.84;;;12.66;34.56
56006;BME280;41888;44.696;10.522;2023-02-12T15:47:13;102222.78;;;12.46;36.28
56006;BME280;41888;44.696;10.522;2023-02-12T15:49:41;102240.94;;;12.43;37.11
56006;BME280;41888;44.696;10.522;2023-02-12T15:52:22;102239.38;;;12.25;38.29
56006;BME280;41888;44.696;10.522;2023-02-12T15:54:50;102241.06;;;12.10;39.87
56006;BME280;41888;44.696;10.522;2023-02-12T15:57:22;102237.78;;;11.76;42.18
56006;BME280;41888;44.696;10.522;2023-02-12T16:00:00;102240.59;;;11.58;43.70
56006;BME280;41888;44.696;10.522;2023-02-12T16:02:30;102231.94;;;11.24;45.37
56006;BME280;41888;44.696;10.522;2023-02-12T16:04:59;102235.72;;;11.05;46.66